CheckWX is a tool to help pilots better visualize weather data.  It is not intended as a substitute for an official pre-flight weather briefing.

02:54:35 UTC

KEKQ METAR
Wayne County Airport
Monticello, Kentucky, USA
Current

59 mins ago

KEKQ 240156Z AUTO VRB05KT 10SM CLR 02/M03 A3028 RMK AO2 SLP286 T00221028 PNO $
Observed
Mar-24 @ 01:56 UTC
Wind
  • Variable at 5 KTS
Visibility
10 SM
Flight Rules
VFR
Cloud Levels
  • Clear skies
Temperature
C / 36°F
Dewpoint
-3°C / 27°F
Humidity
70%
Altimeter
30.28" Hg
Pressure
1028.6 hPa
Previous

2 hours ago

KEKQ 240056Z AUTO 29006KT 10SM CLR 07/M04 A3028 RMK AO2 SLP280 T00671039 PNO $
Observed
Mar-24 @ 00:56 UTC
Wind
  • 290° at 6 KTS
Visibility
10 SM
Flight Rules
VFR
Cloud Levels
  • Clear skies
Temperature
C / 45°F
Dewpoint
-4°C / 25°F
Humidity
46%
Altimeter
30.28" Hg
Pressure
1028 hPa
Previous

3 hours ago

KEKQ 232356Z AUTO 28006KT 10SM CLR 09/M04 A3027 RMK AO2 SLP279 6//// T00891039 10156 20089 55003 PNO $
Observed
Mar-23 @ 23:56 UTC
Wind
  • 280° at 6 KTS
Visibility
10 SM
Flight Rules
VFR
Cloud Levels
  • Clear skies
Temperature
C / 48°F
Dewpoint
-4°C / 25°F
Humidity
40%
Altimeter
30.27" Hg
Pressure
1027.9 hPa